^^
Meteo Knjazevac Station Historical Data
Daily Summary for May 17, 2022 Units:  Metric    English   Both
Daily Weekly Monthly Yearly Custom
  High: Low: Average:
Temperature: 32.2 °C 8.6 °C 20.4 °C
Dew Point: 16.1 °C 6.2 °C 12 °C
Humidity: 89% 34% 62%
Wind Speed: 29km/h 0km/h 5.3km/h
Wind Gust: 48.3km/h - -
Wind- - SW
Pressure: 1020.2 hPa 1013.8 hPa -
Precipitation: 0.51 mm    
Historical Graphs
 
 
Tabular Data for May 17, 2022
Time Temperature Dew Point Pressure Wind Wind Speed Wind Gust Humidity Rainfall Rate (Hourly) solar Conditions
00:00 13.4 °C 8.4 °C 1020.2 hPa Calm   4.8 km/h 72% 0 mm 0 W/m2
00:10 13.1 °C 8.2 °C 1019.9 hPa Calm   3.2 km/h 72% 0 mm 0 W/m2
00:20 12.7 °C 7.9 °C 1020.2 hPa WNW 1.6 km/h 4.8 km/h 73% 0 mm 0 W/m2
00:30 12.3 °C 7.6 °C 1019.9 hPa Calm   3.2 km/h 73% 0 mm 0 W/m2
00:40 12 °C 7.5 °C 1019.9 hPa West 1.6 km/h 3.2 km/h 74% 0 mm 0 W/m2
00:50 11.7 °C 7.4 °C 1019.9 hPa WNW 4.8 km/h 9.7 km/h 75% 0 mm 0 W/m2
01:00 11.7 °C 7.8 °C 1019.9 hPa WNW 1.6 km/h 8 km/h 77% 0 mm 0 W/m2
01:10 11.7 °C 7.4 °C 1019.9 hPa WNW 3.2 km/h 6.4 km/h 75% 0 mm 0 W/m2
01:20 11.4 °C 7.5 °C 1019.9 hPa WNW 3.2 km/h 4.8 km/h 77% 0 mm 0 W/m2
01:30 11.4 °C 7.5 °C 1019.9 hPa West 3.2 km/h 4.8 km/h 77% 0 mm 0 W/m2
01:40 11.1 °C 7.2 °C 1019.9 hPa Calm   4.8 km/h 77% 0 mm 0 W/m2
01:50 10.8 °C 7.1 °C 1019.9 hPa Calm   3.2 km/h 78% 0 mm 0 W/m2
02:00 10.6 °C 6.9 °C 1019.9 hPa WNW 1.6 km/h 3.2 km/h 78% 0 mm 0 W/m2
02:10 10.5 °C 7 °C 1019.9 hPa WNW 3.2 km/h 4.8 km/h 79% 0 mm 0 W/m2
02:20 10.4 °C 7.1 °C 1019.9 hPa West 1.6 km/h 6.4 km/h 80% 0 mm 0 W/m2
02:30 10.3 °C 7 °C 1019.9 hPa West 3.2 km/h 6.4 km/h 80% 0 mm 0 W/m2
02:40 10.1 °C 6.8 °C 1019.9 hPa WSW 3.2 km/h 6.4 km/h 80% 0 mm 0 W/m2
02:50 10 °C 6.9 °C 1019.9 hPa West 3.2 km/h 8 km/h 81% 0 mm 0 W/m2
03:00 9.9 °C 6.6 °C 1019.9 hPa West 1.6 km/h 6.4 km/h 80% 0 mm 0 W/m2
03:10 9.8 °C 6.7 °C 1019.9 hPa WNW 1.6 km/h 3.2 km/h 81% 0 mm 0 W/m2
03:20 9.6 °C 6.5 °C 1019.9 hPa NW 1.6 km/h 3.2 km/h 81% 0 mm 0 W/m2
03:30 9.6 °C 6.8 °C 1019.5 hPa WNW 8 km/h 9.7 km/h 83% 0 mm 0 W/m2
03:40 9.7 °C 6.9 °C 1019.9 hPa WNW 3.2 km/h 9.7 km/h 83% 0 mm 0 W/m2
03:50 9.5 °C 6.8 °C 1019.9 hPa West 1.6 km/h 6.4 km/h 83% 0 mm 0 W/m2
04:00 9.3 °C 6.6 °C 1019.5 hPa WNW 3.2 km/h 4.8 km/h 83% 0 mm 0 W/m2
04:10 9.3 °C 6.7 °C 1019.5 hPa West 3.2 km/h 6.4 km/h 84% 0 mm 0 W/m2
04:20 9.2 °C 6.6 °C 1019.5 hPa West 3.2 km/h 6.4 km/h 84% 0 mm 0 W/m2
04:30 9.1 °C 6.6 °C 1019.5 hPa West 1.6 km/h 4.8 km/h 84% 0 mm 0 W/m2
04:40 8.9 °C 6.5 °C 1019.5 hPa WSW 3.2 km/h 6.4 km/h 85% 0 mm 0 W/m2
04:50 8.6 °C 6.2 °C 1019.5 hPa WSW 4.8 km/h 8 km/h 85% 0 mm 0 W/m2
05:00 8.6 °C 6.4 °C 1019.5 hPa West 4.8 km/h 8 km/h 86% 0 mm 0 W/m2
05:10 8.6 °C 6.4 °C 1019.5 hPa West 1.6 km/h 6.4 km/h 86% 0 mm 6 W/m2
05:20 8.6 °C 6.4 °C 1019.5 hPa West 4.8 km/h 9.7 km/h 86% 0 mm 12 W/m2
05:30 8.7 °C 6.8 °C 1019.5 hPa West 8 km/h 9.7 km/h 88% 0 mm 20 W/m2
05:40 8.8 °C 6.9 °C 1019.5 hPa West 4.8 km/h 8 km/h 88% 0 mm 28 W/m2
05:50 8.8 °C 6.9 °C 1019.9 hPa WSW 1.6 km/h 8 km/h 88% 0 mm 38 W/m2
06:00 8.7 °C 6.8 °C 1019.9 hPa West 3.2 km/h 6.4 km/h 88% 0 mm 66 W/m2
06:10 8.8 °C 6.9 °C 1019.9 hPa West 4.8 km/h 8 km/h 88% 0 mm 86 W/m2
06:20 9.1 °C 7.4 °C 1019.9 hPa West 4.8 km/h 8 km/h 89% 0 mm 108 W/m2
06:30 9.5 °C 7.8 °C 1019.9 hPa West 4.8 km/h 6.4 km/h 89% 0 mm 130 W/m2
06:40 9.8 °C 7.9 °C 1019.9 hPa West 3.2 km/h 6.4 km/h 88% 0 mm 157 W/m2
06:50 10.2 °C 8.3 °C 1019.9 hPa West 3.2 km/h 4.8 km/h 88% 0 mm 187 W/m2
07:00 10.6 °C 8.7 °C 1019.9 hPa West 3.2 km/h 4.8 km/h 88% 0 mm 214 W/m2
07:10 11.1 °C 8.8 °C 1019.9 hPa WNW 1.6 km/h 3.2 km/h 86% 0 mm 245 W/m2
07:20 11.6 °C 9.3 °C 1019.5 hPa West 3.2 km/h 4.8 km/h 86% 0 mm 277 W/m2
07:30 12.1 °C 9.7 °C 1019.5 hPa West 3.2 km/h 6.4 km/h 85% 0 mm 308 W/m2
07:40 12.8 °C 10.2 °C 1019.5 hPa West 3.2 km/h 6.4 km/h 84% 0 mm 295 W/m2
07:50 13.4 °C 10.6 °C 1019.5 hPa WNW 1.6 km/h 4.8 km/h 83% 0 mm 370 W/m2
08:00 14.1 °C 10.6 °C 1019.5 hPa West 3.2 km/h 6.4 km/h 80% 0 mm 402 W/m2
08:10 14.8 °C 11.1 °C 1019.5 hPa WNW 3.2 km/h 6.4 km/h 78% 0 mm 436 W/m2
08:20 15.9 °C 11.5 °C 1019.5 hPa WNW 1.6 km/h 8 km/h 75% 0 mm 472 W/m2
08:30 17.4 °C 12.5 °C 1019.5 hPa West 3.2 km/h 6.4 km/h 73% 0 mm 508 W/m2
08:40 18.6 °C 12.8 °C 1019.2 hPa WNW 1.6 km/h 6.4 km/h 69% 0 mm 546 W/m2
08:50 19.7 °C 13.7 °C 1019.2 hPa WNW 1.6 km/h 4.8 km/h 68% 0 mm 578 W/m2
09:00 20.8 °C 13.8 °C 1019.2 hPa ESE 3.2 km/h 8 km/h 64% 0 mm 609 W/m2
09:10 21.7 °C 14.1 °C 1019.2 hPa WSW 1.6 km/h 6.4 km/h 62% 0 mm 636 W/m2
09:20 22.6 °C 14.7 °C 1018.8 hPa WSW 1.6 km/h 4.8 km/h 61% 0 mm 668 W/m2
09:30 23.4 °C 14.7 °C 1018.8 hPa SSW 3.2 km/h 6.4 km/h 58% 0 mm 696 W/m2
09:40 24.1 °C 15.1 °C 1018.8 hPa SSW 3.2 km/h 6.4 km/h 57% 0 mm 723 W/m2
09:50 24.7 °C 15.1 °C 1018.8 hPa East 1.6 km/h 6.4 km/h 55% 0 mm 751 W/m2
10:00 25.3 °C 15.3 °C 1018.5 hPa SE 1.6 km/h 8 km/h 54% 0 mm 776 W/m2
10:10 25.8 °C 15.5 °C 1018.5 hPa WSW 3.2 km/h 6.4 km/h 53% 0 mm 798 W/m2
10:20 26.2 °C 15.9 °C 1018.5 hPa SSW 3.2 km/h 8 km/h 53% 0 mm 823 W/m2
10:30 26.7 °C 15.4 °C 1018.5 hPa South 1.6 km/h 9.7 km/h 50% 0 mm 846 W/m2
10:40 27 °C 15.4 °C 1018.2 hPa SE 4.8 km/h 9.7 km/h 49% 0 mm 132 W/m2
10:50 27.4 °C 15.4 °C 1018.2 hPa NW 4.8 km/h 8 km/h 48% 0 mm 880 W/m2
11:00 27.7 °C 15.4 °C 1018.2 hPa SSW 1.6 km/h 8 km/h 47% 0 mm 892 W/m2
11:10 28.1 °C 14.3 °C 1017.8 hPa WSW 3.2 km/h 8 km/h 43% 0 mm 708 W/m2
11:20 28.3 °C 14.6 °C 1017.8 hPa SSW 8 km/h 11.3 km/h 43% 0 mm 917 W/m2
11:30 28.5 °C 13.6 °C 1017.8 hPa SE 3.2 km/h 9.7 km/h 40% 0 mm 926 W/m2
11:40 28.8 °C 13.8 °C 1017.8 hPa NE 1.6 km/h 9.7 km/h 40% 0 mm 934 W/m2
11:50 29.1 °C 13.3 °C 1017.5 hPa ESE 4.8 km/h 12.9 km/h 38% 0 mm 940 W/m2
12:00 29.1 °C 13.3 °C 1017.5 hPa SSE 3.2 km/h 12.9 km/h 38% 0 mm 945 W/m2
12:10 29.2 °C 13.4 °C 1017.5 hPa ESE 3.2 km/h 19.3 km/h 38% 0 mm 948 W/m2
12:20 29.4 °C 14 °C 1017.2 hPa East 3.2 km/h 14.5 km/h 39% 0 mm 950 W/m2
12:30 29.6 °C 13.8 °C 1017.2 hPa ESE 8 km/h 14.5 km/h 38% 0 mm 950 W/m2
12:40 30 °C 14.1 °C 1017.2 hPa NNE 4.8 km/h 16.1 km/h 38% 0 mm 948 W/m2
12:50 30.5 °C 14.6 °C 1017.2 hPa SSE 4.8 km/h 12.9 km/h 38% 0 mm 945 W/m2
13:00 30.6 °C 14.3 °C 1016.8 hPa SW 9.7 km/h 12.9 km/h 37% 0 mm 751 W/m2
13:10 30.6 °C 14.2 °C 1016.8 hPa SSW 8 km/h 12.9 km/h 37% 0 mm 934 W/m2
13:20 30.5 °C 14.2 °C 1016.5 hPa SSW 4.8 km/h 11.3 km/h 37% 0 mm 927 W/m2
13:30 30.4 °C 13.2 °C 1016.5 hPa SE 4.8 km/h 11.3 km/h 35% 0 mm 917 W/m2
13:40 30.4 °C 13.7 °C 1016.5 hPa SE 8 km/h 14.5 km/h 36% 0 mm 907 W/m2
13:50 30.7 °C 14.8 °C 1016.1 hPa NE 4.8 km/h 8 km/h 38% 0 mm 894 W/m2
14:00 30.9 °C 14.9 °C 1016.1 hPa East 3.2 km/h 11.3 km/h 38% 0 mm 867 W/m2
14:10 31.1 °C 14.3 °C 1015.8 hPa East 1.6 km/h 11.3 km/h 36% 0 mm 866 W/m2
14:20 31.3 °C 14 °C 1015.5 hPa SE 3.2 km/h 9.7 km/h 35% 0 mm 826 W/m2
14:30 31.2 °C 14.3 °C 1015.5 hPa ESE 1.6 km/h 12.9 km/h 36% 0 mm 806 W/m2
14:40 31.4 °C 14.9 °C 1015.5 hPa SSE 3.2 km/h 12.9 km/h 37% 0 mm 813 W/m2
14:50 31.6 °C 15.1 °C 1015.1 hPa SE 8 km/h 12.9 km/h 37% 0 mm 792 W/m2
15:00 31.7 °C 14.3 °C 1014.8 hPa SSE 9.7 km/h 14.5 km/h 35% 0 mm 771 W/m2
15:10 31.7 °C 14.3 °C 1014.8 hPa SW 11.3 km/h 20.9 km/h 35% 0 mm 748 W/m2
15:20 31.7 °C 14.3 °C 1014.4 hPa NW 4.8 km/h 24.1 km/h 35% 0 mm 725 W/m2
15:30 31.6 °C 13.8 °C 1014.4 hPa WNW 8 km/h 19.3 km/h 34% 0 mm 700 W/m2
15:40 31.8 °C 14 °C 1014.4 hPa WNW 1.6 km/h 12.9 km/h 34% 0 mm 674 W/m2
15:50 31.8 °C 14.4 °C 1014.1 hPa WNW 3.2 km/h 11.3 km/h 35% 0 mm 645 W/m2
16:00 32 °C 14.6 °C 1014.1 hPa West 8 km/h 11.3 km/h 35% 0 mm 611 W/m2
16:10 32.2 °C 14.3 °C 1014.1 hPa WSW 3.2 km/h 11.3 km/h 34% 0 mm 592 W/m2
16:20 32.2 °C 14.3 °C 1014.1 hPa WSW 4.8 km/h 11.3 km/h 34% 0 mm 564 W/m2
16:30 31.6 °C 14.3 °C 1014.1 hPa West 4.8 km/h 11.3 km/h 35% 0 mm 161 W/m2
16:40 31.2 °C 14.3 °C 1013.8 hPa WSW 4.8 km/h 16.1 km/h 36% 0 mm 397 W/m2
16:50 31.2 °C 13.9 °C 1013.8 hPa WSW 4.8 km/h 11.3 km/h 35% 0 mm 264 W/m2
17:00 30.8 °C 14.4 °C 1014.1 hPa SW 14.5 km/h 19.3 km/h 37% 0 mm 320 W/m2
17:10 30.5 °C 14.6 °C 1013.8 hPa SW 12.9 km/h 19.3 km/h 38% 0 mm 301 W/m2
17:20 30.2 °C 14.3 °C 1013.8 hPa SW 12.9 km/h 20.9 km/h 38% 0 mm 197 W/m2
17:30 29.7 °C 14.3 °C 1014.1 hPa WSW 14.5 km/h 25.7 km/h 39% 0 mm 166 W/m2
17:40 29.3 °C 13.9 °C 1014.1 hPa SW 12.9 km/h 22.5 km/h 39% 0 mm 118 W/m2
17:50 28.9 °C 14.3 °C 1014.1 hPa SW 11.3 km/h 20.9 km/h 41% 0 mm 100 W/m2
18:00 28.6 °C 14.4 °C 1014.1 hPa WSW 8 km/h 14.5 km/h 42% 0 mm 78 W/m2
18:10 28.2 °C 14.4 °C 1014.1 hPa WSW 9.7 km/h 14.5 km/h 43% 0 mm 66 W/m2
18:20 27.9 °C 14.6 °C 1014.1 hPa WSW 4.8 km/h 12.9 km/h 44% 0 mm 54 W/m2
18:30 27.7 °C 14.3 °C 1014.1 hPa WSW 4.8 km/h 11.3 km/h 44% 0 mm 29 W/m2
18:40 27.4 °C 14.4 °C 1014.1 hPa WSW 4.8 km/h 9.7 km/h 45% 0 mm 14 W/m2
18:50 27.1 °C 14.8 °C 1014.1 hPa WSW 3.2 km/h 6.4 km/h 47% 0 mm 9 W/m2
19:00 26.6 °C 15.6 °C 1014.4 hPa West 29 km/h 45.1 km/h 51% 0 mm 5 W/m2
19:10 24.6 °C 16 °C 1014.8 hPa West 20.9 km/h 48.3 km/h 59% 0 mm 4 W/m2
19:20 22.5 °C 16.1 °C 1015.1 hPa West 22.5 km/h 45.1 km/h 67% 0 mm 2 W/m2
19:30 21.6 °C 15.4 °C 1015.1 hPa WNW 20.9 km/h 38.6 km/h 68% 0 mm 0 W/m2
19:40 21.1 °C 15.2 °C 1014.8 hPa WNW 16.1 km/h 30.6 km/h 69% 0 mm 0 W/m2
19:50 20.9 °C 15.2 °C 1014.8 hPa WNW 14.5 km/h 33.8 km/h 70% 0.25 mm 0 W/m2
20:00 20.7 °C 15.1 °C 1015.1 hPa SSE 4.8 km/h 19.3 km/h 70% 0 mm 0 W/m2
20:10 20.6 °C 14.9 °C 1015.5 hPa South 8 km/h 12.9 km/h 70% 0 mm 0 W/m2
20:20 20.4 °C 14.5 °C 1015.8 hPa SSW 4.8 km/h 11.3 km/h 69% 0 mm 0 W/m2
20:30 20.3 °C 14.4 °C 1015.8 hPa WSW 9.7 km/h 12.9 km/h 69% 0 mm 0 W/m2
20:40 20.3 °C 14.2 °C 1015.8 hPa WSW 3.2 km/h 12.9 km/h 68% 0 mm 0 W/m2
20:50 20.2 °C 14.3 °C 1015.8 hPa SW 3.2 km/h 8 km/h 69% 0 mm 0 W/m2
21:00 20.1 °C 14 °C 1016.1 hPa SW 4.8 km/h 8 km/h 68% 0 mm 0 W/m2
21:10 20 °C 14.1 °C 1016.5 hPa WSW 4.8 km/h 8 km/h 69% 0 mm 0 W/m2
21:20 19.9 °C 13.8 °C 1016.8 hPa SW 14.5 km/h 22.5 km/h 68% 0 mm 0 W/m2
21:30 19.9 °C 13.8 °C 1016.8 hPa SW 12.9 km/h 24.1 km/h 68% 0 mm 0 W/m2
21:40 19.8 °C 14 °C 1016.8 hPa SW 11.3 km/h 19.3 km/h 69% 0 mm 0 W/m2
21:50 19.8 °C 13.9 °C 1017.2 hPa SW 3.2 km/h 16.1 km/h 69% 0 mm 0 W/m2
22:00 19.8 °C 13.9 °C 1017.5 hPa WNW 4.8 km/h 9.7 km/h 69% 0 mm 0 W/m2
22:10 19.7 °C 13.8 °C 1017.8 hPa West 9.7 km/h 20.9 km/h 69% 0 mm 0 W/m2
22:20 19.6 °C 14 °C 1018.2 hPa West 16.1 km/h 24.1 km/h 70% 0.25 mm 0 W/m2
22:30 19.4 °C 14.4 °C 1018.2 hPa WSW 9.7 km/h 25.7 km/h 73% 0.25 mm 0 W/m2
22:40 19.1 °C 14.3 °C 1018.2 hPa West 8 km/h 20.9 km/h 74% 0 mm 0 W/m2
22:50 18.9 °C 14.2 °C 1018.2 hPa West 11.3 km/h 20.9 km/h 74% 0 mm 0 W/m2
23:00 18.8 °C 14.3 °C 1017.8 hPa West 4.8 km/h 19.3 km/h 75% 0 mm 0 W/m2
23:10 18.7 °C 13.9 °C 1017.8 hPa NNW 3.2 km/h 14.5 km/h 74% 0 mm 0 W/m2
23:20 18.7 °C 13.9 °C 1017.5 hPa NNE 1.6 km/h 8 km/h 74% 0 mm 0 W/m2
23:30 18.7 °C 13.9 °C 1017.5 hPa ENE 1.6 km/h 6.4 km/h 74% 0 mm 0 W/m2
23:40 18.6 °C 14.1 °C 1017.2 hPa WNW 4.8 km/h 8 km/h 75% 0 mm 0 W/m2
23:50 18.4 °C 13.9 °C 1017.2 hPa SW 4.8 km/h 11.3 km/h 75% 0 mm 0 W/m2
Knjazevac, Serbia
Compliments of Weather Underground - 2 mb